sensor_id;sensor_type;location;lat;lon;timestamp;pressure;altitude;pressure_sealevel;temperature;humidity
63009;BME280;49099;28.428;-16.488;2023-10-09T00:02:28;98398.28;;;29.54;39.09
63009;BME280;49099;28.428;-16.488;2023-10-09T00:05:17;98400.63;;;29.59;38.99
63009;BME280;49099;28.428;-16.488;2023-10-09T00:08:26;98404.91;;;29.60;38.34
63009;BME280;49099;28.428;-16.488;2023-10-09T00:11:19;98408.06;;;29.52;51.96
63009;BME280;49099;28.428;-16.488;2023-10-09T00:14:08;98414.25;;;29.31;54.46
63009;BME280;49099;28.428;-16.488;2023-10-09T00:16:55;98398.66;;;29.06;55.43
63009;BME280;49099;28.428;-16.488;2023-10-09T00:19:50;98403.34;;;28.95;56.70
63009;BME280;49099;28.428;-16.488;2023-10-09T00:22:39;98405.66;;;28.93;52.66
63009;BME280;49099;28.428;-16.488;2023-10-09T00:25:33;98397.81;;;28.88;50.06
63009;BME280;49099;28.428;-16.488;2023-10-09T00:28:23;98400.16;;;28.86;47.26
63009;BME280;49099;28.428;-16.488;2023-10-09T00:31:15;98397.44;;;28.90;45.77
63009;BME280;49099;28.428;-16.488;2023-10-09T00:34:03;98400.56;;;28.88;45.10
63009;BME280;49099;28.428;-16.488;2023-10-09T00:36:52;98405.28;;;28.98;44.08
63009;BME280;49099;28.428;-16.488;2023-10-09T00:39:41;98402.53;;;28.98;43.17
63009;BME280;49099;28.428;-16.488;2023-10-09T00:42:30;98400.19;;;29.00;41.99
63009;BME280;49099;28.428;-16.488;2023-10-09T00:45:23;98399.81;;;28.98;41.02
63009;BME280;49099;28.428;-16.488;2023-10-09T00:48:20;98390.84;;;29.08;39.87
63009;BME280;49099;28.428;-16.488;2023-10-09T00:51:18;98391.63;;;29.16;39.03
63009;BME280;49099;28.428;-16.488;2023-10-09T00:54:07;98390.84;;;29.16;36.90
63009;BME280;49099;28.428;-16.488;2023-10-09T00:57:02;98390.47;;;29.13;37.59
63009;BME280;49099;28.428;-16.488;2023-10-09T01:00:00;98381.50;;;29.20;36.66
63009;BME280;49099;28.428;-16.488;2023-10-09T01:02:48;98382.66;;;29.23;37.37
63009;BME280;49099;28.428;-16.488;2023-10-09T01:06:01;98383.84;;;29.29;37.10
63009;BME280;49099;28.428;-16.488;2023-10-09T01:08:58;98376.03;;;29.27;36.48
63009;BME280;49099;28.428;-16.488;2023-10-09T01:11:58;98382.66;;;29.23;36.50
63009;BME280;49099;28.428;-16.488;2023-10-09T01:14:46;98380.72;;;29.30;36.39
63009;BME280;49099;28.428;-16.488;2023-10-09T01:17:43;98373.66;;;29.26;37.81
63009;BME280;49099;28.428;-16.488;2023-10-09T01:20:33;98374.06;;;29.06;37.96
63009;BME280;49099;28.428;-16.488;2023-10-09T01:23:28;98388.50;;;29.07;38.11
63009;BME280;49099;28.428;-16.488;2023-10-09T01:26:19;98389.25;;;28.90;40.75
63009;BME280;49099;28.428;-16.488;2023-10-09T01:29:08;98379.88;;;28.80;39.67
63009;BME280;49099;28.428;-16.488;2023-10-09T01:32:01;98380.66;;;28.84;39.93
63009;BME280;49099;28.428;-16.488;2023-10-09T01:34:50;98374.47;;;28.98;39.14
63009;BME280;49099;28.428;-16.488;2023-10-09T01:37:38;98370.16;;;29.00;38.59
63009;BME280;49099;28.428;-16.488;2023-10-09T01:40:25;98365.09;;;28.99;38.61
63009;BME280;49099;28.428;-16.488;2023-10-09T01:43:22;98360.44;;;29.03;38.51
63009;BME280;49099;28.428;-16.488;2023-10-09T01:46:11;98360.41;;;29.06;38.30
63009;BME280;49099;28.428;-16.488;2023-10-09T01:48:59;98360.81;;;29.01;38.36
63009;BME280;49099;28.428;-16.488;2023-10-09T01:51:56;98351.06;;;29.07;37.99
63009;BME280;49099;28.428;-16.488;2023-10-09T01:54:47;98354.16;;;29.09;38.32
63009;BME280;49099;28.428;-16.488;2023-10-09T01:57:36;98354.19;;;28.95;38.78
63009;BME280;49099;28.428;-16.488;2023-10-09T02:00:26;98355.75;;;28.96;38.55
63009;BME280;49099;28.428;-16.488;2023-10-09T02:03:16;98348.72;;;28.99;37.68
63009;BME280;49099;28.428;-16.488;2023-10-09T02:06:05;98341.66;;;28.87;37.84
63009;BME280;49099;28.428;-16.488;2023-10-09T02:09:05;98343.59;;;28.72;39.38
63009;BME280;49099;28.428;-16.488;2023-10-09T02:11:53;98345.56;;;28.72;40.56
63009;BME280;49099;28.428;-16.488;2023-10-09T02:14:41;98341.63;;;28.58;41.15
63009;BME280;49099;28.428;-16.488;2023-10-09T02:17:29;98335.38;;;28.62;40.24
63009;BME280;49099;28.428;-16.488;2023-10-09T02:20:17;98332.28;;;28.67;40.50
63009;BME280;49099;28.428;-16.488;2023-10-09T02:23:15;98322.16;;;28.78;40.32
63009;BME280;49099;28.428;-16.488;2023-10-09T02:26:08;98312.00;;;28.78;40.21
63009;BME280;49099;28.428;-16.488;2023-10-09T02:28:56;98308.13;;;28.76;39.91
63009;BME280;49099;28.428;-16.488;2023-10-09T02:31:47;98306.19;;;28.80;39.49
63009;BME280;49099;28.428;-16.488;2023-10-09T02:34:39;98304.59;;;28.86;39.40
63009;BME280;49099;28.428;-16.488;2023-10-09T02:37:27;98291.38;;;28.88;38.97
63009;BME280;49099;28.428;-16.488;2023-10-09T02:40:15;98287.47;;;28.82;38.77
63009;BME280;49099;28.428;-16.488;2023-10-09T02:43:11;98284.34;;;28.73;39.21
63009;BME280;49099;28.428;-16.488;2023-10-09T02:46:01;98287.06;;;28.66;38.94
63009;BME280;49099;28.428;-16.488;2023-10-09T02:49:02;98285.50;;;28.57;39.63
63009;BME280;49099;28.428;-16.488;2023-10-09T02:51:57;98283.53;;;28.62;40.46
63009;BME280;49099;28.428;-16.488;2023-10-09T02:54:45;98274.56;;;28.68;40.19
63009;BME280;49099;28.428;-16.488;2023-10-09T02:57:47;98282.00;;;28.68;40.44
63009;BME280;49099;28.428;-16.488;2023-10-09T03:00:38;98278.09;;;28.72;40.39
63009;BME280;49099;28.428;-16.488;2023-10-09T03:03:26;98280.06;;;28.72;40.03
63009;BME280;49099;28.428;-16.488;2023-10-09T03:06:15;98288.63;;;28.74;40.33
63009;BME280;49099;28.428;-16.488;2023-10-09T03:09:17;98283.91;;;28.64;41.02
63009;BME280;49099;28.428;-16.488;2023-10-09T03:12:05;98294.84;;;28.71;41.88
63009;BME280;49099;28.428;-16.488;2023-10-09T03:14:57;98289.00;;;28.69;40.49
63009;BME280;49099;28.428;-16.488;2023-10-09T03:17:46;98290.19;;;28.75;41.66
63009;BME280;49099;28.428;-16.488;2023-10-09T03:20:35;98294.47;;;28.69;41.09
63009;BME280;49099;28.428;-16.488;2023-10-09T03:23:23;98296.41;;;28.68;40.98
63009;BME280;49099;28.428;-16.488;2023-10-09T03:26:11;98293.69;;;28.65;41.20
63009;BME280;49099;28.428;-16.488;2023-10-09T03:29:07;98306.53;;;28.61;41.86
63009;BME280;49099;28.428;-16.488;2023-10-09T03:31:57;98303.41;;;28.55;43.25
63009;BME280;49099;28.428;-16.488;2023-10-09T03:34:45;98309.25;;;28.46;43.46
63009;BME280;49099;28.428;-16.488;2023-10-09T03:37:32;98321.72;;;28.47;44.05
63009;BME280;49099;28.428;-16.488;2023-10-09T03:40:23;98319.38;;;28.46;45.46
63009;BME280;49099;28.428;-16.488;2023-10-09T03:43:12;98321.69;;;28.40;44.20
63009;BME280;49099;28.428;-16.488;2023-10-09T03:46:00;98319.78;;;28.41;44.74
63009;BME280;49099;28.428;-16.488;2023-10-09T03:48:50;98322.09;;;28.42;43.79
63009;BME280;49099;28.428;-16.488;2023-10-09T03:51:44;98322.50;;;28.44;42.53
63009;BME280;49099;28.428;-16.488;2023-10-09T03:54:33;98321.31;;;28.38;42.52
63009;BME280;49099;28.428;-16.488;2023-10-09T03:57:23;98317.03;;;28.41;42.47
63009;BME280;49099;28.428;-16.488;2023-10-09T04:00:12;98322.09;;;28.42;42.57
63009;BME280;49099;28.428;-16.488;2023-10-09T04:03:03;98325.59;;;28.46;42.36
63009;BME280;49099;28.428;-16.488;2023-10-09T04:05:53;98326.00;;;28.41;43.48
63009;BME280;49099;28.428;-16.488;2023-10-09T04:08:40;98322.47;;;28.37;43.80
63009;BME280;49099;28.428;-16.488;2023-10-09T04:11:34;98322.88;;;28.39;44.65
63009;BME280;49099;28.428;-16.488;2023-10-09T04:14:23;98317.34;;;28.28;45.02
63009;BME280;49099;28.428;-16.488;2023-10-09T04:17:34;98314.97;;;28.13;45.76
63009;BME280;49099;28.428;-16.488;2023-10-09T04:20:22;98313.44;;;28.19;45.80
63009;BME280;49099;28.428;-16.488;2023-10-09T04:23:10;98303.34;;;28.26;46.74
63009;BME280;49099;28.428;-16.488;2023-10-09T04:26:03;98318.50;;;28.24;45.96
63009;BME280;49099;28.428;-16.488;2023-10-09T04:28:57;98309.56;;;28.27;45.66
63009;BME280;49099;28.428;-16.488;2023-10-09T04:31:46;98315.06;;;28.30;46.55
63009;BME280;49099;28.428;-16.488;2023-10-09T04:34:39;98307.22;;;28.25;46.42
63009;BME280;49099;28.428;-16.488;2023-10-09T04:37:35;98315.00;;;28.20;45.93
63009;BME280;49099;28.428;-16.488;2023-10-09T04:40:26;98315.00;;;28.23;45.55
63009;BME280;49099;28.428;-16.488;2023-10-09T04:43:35;98304.13;;;28.27;44.89
63009;BME280;49099;28.428;-16.488;2023-10-09T04:46:31;98302.56;;;28.26;45.10
63009;BME280;49099;28.428;-16.488;2023-10-09T04:49:32;98315.38;;;28.15;45.03
63009;BME280;49099;28.428;-16.488;2023-10-09T04:52:40;98316.50;;;28.07;45.31
63009;BME280;49099;28.428;-16.488;2023-10-09T04:55:28;98322.31;;;27.98;47.85
63009;BME280;49099;28.428;-16.488;2023-10-09T04:58:25;98326.53;;;27.85;47.21
63009;BME280;49099;28.428;-16.488;2023-10-09T05:01:13;98327.28;;;27.78;46.96
63009;BME280;49099;28.428;-16.488;2023-10-09T05:04:04;98331.94;;;27.74;47.68
63009;BME280;49099;28.428;-16.488;2023-10-09T05:07:07;98336.56;;;27.70;48.05
63009;BME280;49099;28.428;-16.488;2023-10-09T05:10:33;98336.56;;;27.70;50.31
63009;BME280;49099;28.428;-16.488;2023-10-09T05:13:20;98334.28;;;27.72;50.13
63009;BME280;49099;28.428;-16.488;2023-10-09T05:16:29;98329.56;;;27.69;49.57
63009;BME280;49099;28.428;-16.488;2023-10-09T05:19:17;98338.19;;;27.78;48.64
63009;BME280;49099;28.428;-16.488;2023-10-09T05:22:27;98326.19;;;27.86;48.08
63009;BME280;49099;28.428;-16.488;2023-10-09T05:25:24;98336.69;;;27.91;49.17
63009;BME280;49099;28.428;-16.488;2023-10-09T05:28:32;98337.47;;;27.92;49.58
63009;BME280;49099;28.428;-16.488;2023-10-09T05:31:35;98328.91;;;27.86;49.03
63009;BME280;49099;28.428;-16.488;2023-10-09T05:34:45;98339.72;;;27.75;49.50
63009;BME280;49099;28.428;-16.488;2023-10-09T05:37:47;98347.44;;;27.63;50.02
63009;BME280;49099;28.428;-16.488;2023-10-09T05:40:47;98365.69;;;27.62;49.90
63009;BME280;49099;28.428;-16.488;2023-10-09T05:43:41;98359.84;;;27.57;49.84
63009;BME280;49099;28.428;-16.488;2023-10-09T05:46:47;98373.88;;;27.62;49.50
63009;BME280;49099;28.428;-16.488;2023-10-09T05:49:53;98372.59;;;27.45;50.07
63009;BME280;49099;28.428;-16.488;2023-10-09T05:52:56;98376.03;;;27.35;50.80
63009;BME280;49099;28.428;-16.488;2023-10-09T05:55:52;98379.81;;;27.20;50.72
63009;BME280;49099;28.428;-16.488;2023-10-09T05:58:57;98375.53;;;27.23;49.79
63009;BME280;49099;28.428;-16.488;2023-10-09T06:01:53;98372.81;;;27.23;49.23
63009;BME280;49099;28.428;-16.488;2023-10-09T06:05:04;98386.09;;;27.31;48.46
63009;BME280;49099;28.428;-16.488;2023-10-09T06:07:52;98375.13;;;27.20;48.92
63009;BME280;49099;28.428;-16.488;2023-10-09T06:10:53;98374.34;;;27.20;48.07
63009;BME280;49099;28.428;-16.488;2023-10-09T06:13:54;98371.34;;;27.32;47.98
63009;BME280;49099;28.428;-16.488;2023-10-09T06:16:58;98368.97;;;27.31;47.07
63009;BME280;49099;28.428;-16.488;2023-10-09T06:20:09;98361.59;;;27.28;45.70
63009;BME280;49099;28.428;-16.488;2023-10-09T06:23:17;98363.59;;;27.38;46.37
63009;BME280;49099;28.428;-16.488;2023-10-09T06:26:11;98364.47;;;27.53;46.14
63009;BME280;49099;28.428;-16.488;2023-10-09T06:29:10;98359.84;;;27.60;46.05
63009;BME280;49099;28.428;-16.488;2023-10-09T06:32:05;98356.81;;;27.69;45.76
63009;BME280;49099;28.428;-16.488;2023-10-09T06:35:06;98359.97;;;27.78;45.69
63009;BME280;49099;28.428;-16.488;2023-10-09T06:38:04;98371.69;;;27.82;45.83
63009;BME280;49099;28.428;-16.488;2023-10-09T06:41:11;98358.84;;;27.79;46.32
63009;BME280;49099;28.428;-16.488;2023-10-09T06:43:59;98370.88;;;27.74;46.94
63009;BME280;49099;28.428;-16.488;2023-10-09T06:46:53;98371.31;;;27.80;46.34
63009;BME280;49099;28.428;-16.488;2023-10-09T06:49:45;98365.47;;;27.85;46.55
63009;BME280;49099;28.428;-16.488;2023-10-09T06:52:53;98377.97;;;27.86;45.31
63009;BME280;49099;28.428;-16.488;2023-10-09T06:55:58;98385.72;;;27.84;46.03
63009;BME280;49099;28.428;-16.488;2023-10-09T06:58:53;98391.94;;;27.85;45.27
63009;BME280;49099;28.428;-16.488;2023-10-09T07:01:44;98397.75;;;27.76;43.13
63009;BME280;49099;28.428;-16.488;2023-10-09T07:04:52;98394.09;;;27.58;43.82
63009;BME280;49099;28.428;-16.488;2023-10-09T07:07:42;98406.50;;;27.52;43.68
63009;BME280;49099;28.428;-16.488;2023-10-09T07:10:39;98406.38;;;27.37;43.42
63009;BME280;49099;28.428;-16.488;2023-10-09T07:13:27;98413.41;;;27.38;42.73
63009;BME280;49099;28.428;-16.488;2023-10-09T07:16:14;98430.63;;;27.49;43.25
63009;BME280;49099;28.428;-16.488;2023-10-09T07:19:11;98440.31;;;27.47;42.94
63009;BME280;49099;28.428;-16.488;2023-10-09T07:22:17;98452.28;;;27.35;42.77
63009;BME280;49099;28.428;-16.488;2023-10-09T07:25:08;98463.84;;;27.21;44.15
63009;BME280;49099;28.428;-16.488;2023-10-09T07:28:03;98466.06;;;27.09;44.59
63009;BME280;49099;28.428;-16.488;2023-10-09T07:31:05;98474.44;;;26.97;44.35
63009;BME280;49099;28.428;-16.488;2023-10-09T07:33:57;98478.28;;;26.92;41.82
63009;BME280;49099;28.428;-16.488;2023-10-09T07:36:45;98488.50;;;27.02;40.43
63009;BME280;49099;28.428;-16.488;2023-10-09T07:39:35;98501.94;;;27.18;39.54
63009;BME280;49099;28.428;-16.488;2023-10-09T07:42:25;98503.56;;;27.26;43.59
63009;BME280;49099;28.428;-16.488;2023-10-09T07:45:28;98511.97;;;27.10;50.14
63009;BME280;49099;28.428;-16.488;2023-10-09T07:48:36;98514.94;;;27.02;49.81
63009;BME280;49099;28.428;-16.488;2023-10-09T07:51:40;98516.63;;;27.10;50.72
63009;BME280;49099;28.428;-16.488;2023-10-09T07:54:32;98513.97;;;27.17;49.26
63009;BME280;49099;28.428;-16.488;2023-10-09T07:57:21;98507.91;;;27.34;48.47
63009;BME280;49099;28.428;-16.488;2023-10-09T08:00:14;98509.25;;;27.55;46.58
63009;BME280;49099;28.428;-16.488;2023-10-09T08:03:20;98510.78;;;27.48;51.41
63009;BME280;49099;28.428;-16.488;2023-10-09T08:06:21;98510.66;;;27.38;54.04
63009;BME280;49099;28.428;-16.488;2023-10-09T08:09:27;98507.53;;;27.32;53.75
63009;BME280;49099;28.428;-16.488;2023-10-09T08:12:34;98515.69;;;27.32;55.66
63009;BME280;49099;28.428;-16.488;2023-10-09T08:15:45;98506.84;;;27.42;54.13
63009;BME280;49099;28.428;-16.488;2023-10-09T08:18:39;98503.06;;;27.58;53.32
63009;BME280;49099;28.428;-16.488;2023-10-09T08:21:32;98495.44;;;27.74;52.85
63009;BME280;49099;28.428;-16.488;2023-10-09T08:24:52;98503.69;;;27.81;50.86
63009;BME280;49099;28.428;-16.488;2023-10-09T08:27:45;98496.22;;;27.74;54.31
63009;BME280;49099;28.428;-16.488;2023-10-09T08:30:42;98502.06;;;27.73;53.99
63009;BME280;49099;28.428;-16.488;2023-10-09T08:33:38;98516.84;;;27.72;54.25
63009;BME280;49099;28.428;-16.488;2023-10-09T08:36:33;98517.88;;;27.57;55.23
63009;BME280;49099;28.428;-16.488;2023-10-09T08:39:28;98513.84;;;27.47;55.87
63009;BME280;49099;28.428;-16.488;2023-10-09T08:42:21;98520.84;;;27.44;55.26
63009;BME280;49099;28.428;-16.488;2023-10-09T08:45:12;98527.06;;;27.45;54.96
63009;BME280;49099;28.428;-16.488;2023-10-09T08:48:02;98523.97;;;27.46;54.78
63009;BME280;49099;28.428;-16.488;2023-10-09T08:50:52;98524.09;;;27.61;53.80
63009;BME280;49099;28.428;-16.488;2023-10-09T08:53:42;98529.78;;;27.82;53.90
63009;BME280;49099;28.428;-16.488;2023-10-09T08:56:30;98527.31;;;27.70;54.61
63009;BME280;49099;28.428;-16.488;2023-10-09T08:59:19;98518.94;;;27.89;52.83
63009;BME280;49099;28.428;-16.488;2023-10-09T09:02:06;98528.44;;;28.17;52.04
63009;BME280;49099;28.428;-16.488;2023-10-09T09:04:58;98533.91;;;28.13;53.68
63009;BME280;49099;28.428;-16.488;2023-10-09T09:07:46;98531.94;;;28.14;53.53
63009;BME280;49099;28.428;-16.488;2023-10-09T09:10:35;98520.72;;;28.22;52.30
63009;BME280;49099;28.428;-16.488;2023-10-09T09:13:23;98519.31;;;28.46;52.25
63009;BME280;49099;28.428;-16.488;2023-10-09T09:16:17;98524.50;;;28.66;51.46
63009;BME280;49099;28.428;-16.488;2023-10-09T09:19:06;98513.28;;;28.89;49.39
63009;BME280;49099;28.428;-16.488;2023-10-09T09:21:57;98507.50;;;29.04;44.01
63009;BME280;49099;28.428;-16.488;2023-10-09T09:24:59;98510.25;;;29.22;35.84
63009;BME280;49099;28.428;-16.488;2023-10-09T09:27:56;98497.78;;;29.39;34.55
63009;BME280;49099;28.428;-16.488;2023-10-09T09:30:53;98492.38;;;29.53;31.29
63009;BME280;49099;28.428;-16.488;2023-10-09T09:33:41;98496.28;;;29.66;33.25
63009;BME280;49099;28.428;-16.488;2023-10-09T09:36:34;98504.06;;;29.79;34.05
63009;BME280;49099;28.428;-16.488;2023-10-09T09:39:30;98504.06;;;29.79;31.56
63009;BME280;49099;28.428;-16.488;2023-10-09T09:42:36;98495.50;;;29.77;31.17
63009;BME280;49099;28.428;-16.488;2023-10-09T09:45:25;98499.38;;;29.79;33.78
63009;BME280;49099;28.428;-16.488;2023-10-09T09:48:14;98507.19;;;29.91;36.32
63009;BME280;49099;28.428;-16.488;2023-10-09T09:51:03;98507.97;;;29.99;35.57
63009;BME280;49099;28.428;-16.488;2023-10-09T09:53:53;98504.84;;;30.01;34.85
63009;BME280;49099;28.428;-16.488;2023-10-09T09:56:45;98505.22;;;30.03;34.94
63009;BME280;49099;28.428;-16.488;2023-10-09T09:59:39;98522.03;;;30.05;39.16
63009;BME280;49099;28.428;-16.488;2023-10-09T10:02:36;98524.38;;;29.78;51.21
63009;BME280;49099;28.428;-16.488;2023-10-09T10:05:27;98528.28;;;29.62;51.33
63009;BME280;49099;28.428;-16.488;2023-10-09T10:08:21;98541.50;;;29.32;55.50
63009;BME280;49099;28.428;-16.488;2023-10-09T10:11:46;98553.81;;;28.83;58.01
63009;BME280;49099;28.428;-16.488;2023-10-09T10:14:55;98555.22;;;28.52;59.61
63009;BME280;49099;28.428;-16.488;2023-10-09T10:18:07;98552.13;;;28.57;57.78
63009;BME280;49099;28.428;-16.488;2023-10-09T10:24:02;98549.25;;;29.08;50.42
63009;BME280;49099;28.428;-16.488;2023-10-09T10:33:11;98575.09;;;29.43;45.28
63009;BME280;49099;28.428;-16.488;2023-10-09T10:36:03;98570.06;;;29.52;45.28
63009;BME280;49099;28.428;-16.488;2023-10-09T10:39:00;98580.25;;;29.77;43.78
63009;BME280;49099;28.428;-16.488;2023-10-09T10:41:59;98578.31;;;29.99;42.22
63009;BME280;49099;28.428;-16.488;2023-10-09T10:44:48;98578.69;;;30.11;39.19
63009;BME280;49099;28.428;-16.488;2023-10-09T10:47:41;98581.06;;;30.16;37.69
63009;BME280;49099;28.428;-16.488;2023-10-09T10:50:30;98574.41;;;30.17;33.77
63009;BME280;49099;28.428;-16.488;2023-10-09T10:53:17;98575.56;;;30.27;32.01
63009;BME280;49099;28.428;-16.488;2023-10-09T10:56:06;98574.78;;;30.30;26.47
63009;BME280;49099;28.428;-16.488;2023-10-09T10:59:00;98574.38;;;30.42;26.93
63009;BME280;49099;28.428;-16.488;2023-10-09T11:01:53;98565.72;;;30.62;26.90
63009;BME280;49099;28.428;-16.488;2023-10-09T11:04:48;98571.97;;;30.76;26.13
63009;BME280;49099;28.428;-16.488;2023-10-09T11:07:43;98567.19;;;30.98;25.49
63009;BME280;49099;28.428;-16.488;2023-10-09T11:10:31;98568.25;;;31.19;23.21
63009;BME280;49099;28.428;-16.488;2023-10-09T11:13:26;98561.56;;;31.30;23.50
63009;BME280;49099;28.428;-16.488;2023-10-09T11:16:25;98556.00;;;31.45;22.68
63009;BME280;49099;28.428;-16.488;2023-10-09T11:19:34;98561.31;;;31.66;25.87
63009;BME280;49099;28.428;-16.488;2023-10-09T11:22:27;98562.03;;;31.81;27.29
63009;BME280;49099;28.428;-16.488;2023-10-09T11:25:23;98544.38;;;31.85;25.53
63009;BME280;49099;28.428;-16.488;2023-10-09T11:28:21;98550.16;;;31.95;25.70
63009;BME280;49099;28.428;-16.488;2023-10-09T11:31:29;98539.19;;;31.95;26.20
63009;BME280;49099;28.428;-16.488;2023-10-09T11:34:21;98528.66;;;31.89;25.17
63009;BME280;49099;28.428;-16.488;2023-10-09T11:37:23;98519.50;;;32.07;26.98
63009;BME280;49099;28.428;-16.488;2023-10-09T11:40:33;98522.94;;;32.14;26.71
63009;BME280;49099;28.428;-16.488;2023-10-09T11:43:52;98510.81;;;32.12;26.32
63009;BME280;49099;28.428;-16.488;2023-10-09T11:46:40;98507.00;;;32.02;24.66
63009;BME280;49099;28.428;-16.488;2023-10-09T11:49:54;98502.34;;;31.96;24.05
63009;BME280;49099;28.428;-16.488;2023-10-09T11:52:59;98493.38;;;31.92;22.04
63009;BME280;49099;28.428;-16.488;2023-10-09T11:55:56;98489.81;;;31.95;20.73
63009;BME280;49099;28.428;-16.488;2023-10-09T11:58:49;98495.25;;;32.02;20.72
63009;BME280;49099;28.428;-16.488;2023-10-09T12:01:46;98499.59;;;31.99;21.67
63009;BME280;49099;28.428;-16.488;2023-10-09T12:04:40;98498.31;;;32.07;21.75
63009;BME280;49099;28.428;-16.488;2023-10-09T12:07:32;98502.16;;;32.13;21.58
63009;BME280;49099;28.428;-16.488;2023-10-09T12:10:21;98494.03;;;32.06;22.40
63009;BME280;49099;28.428;-16.488;2023-10-09T12:13:13;98502.94;;;32.14;24.41
63009;BME280;49099;28.428;-16.488;2023-10-09T12:16:03;98490.72;;;32.22;21.70
63009;BME280;49099;28.428;-16.488;2023-10-09T12:18:55;98496.47;;;32.35;20.65
63009;BME280;49099;28.428;-16.488;2023-10-09T12:21:43;98487.06;;;32.36;20.49
63009;BME280;49099;28.428;-16.488;2023-10-09T12:24:31;98484.38;;;32.32;20.22
63009;BME280;49099;28.428;-16.488;2023-10-09T12:27:20;98480.91;;;32.21;19.33
63009;BME280;49099;28.428;-16.488;2023-10-09T12:30:09;98469.13;;;32.24;19.64
63009;BME280;49099;28.428;-16.488;2023-10-09T12:32:58;98483.19;;;32.33;19.83
63009;BME280;49099;28.428;-16.488;2023-10-09T12:35:46;98479.22;;;32.38;19.56
63009;BME280;49099;28.428;-16.488;2023-10-09T12:38:34;98483.47;;;32.42;20.31
63009;BME280;49099;28.428;-16.488;2023-10-09T12:41:22;98481.78;;;32.52;20.16
63009;BME280;49099;28.428;-16.488;2023-10-09T12:44:16;98483.66;;;32.59;19.99
63009;BME280;49099;28.428;-16.488;2023-10-09T12:47:06;98476.53;;;32.65;20.91
63009;BME280;49099;28.428;-16.488;2023-10-09T12:49:54;98469.38;;;32.71;21.68
63009;BME280;49099;28.428;-16.488;2023-10-09T12:52:43;98464.59;;;32.75;21.10
63009;BME280;49099;28.428;-16.488;2023-10-09T12:55:31;98463.47;;;32.72;22.24
63009;BME280;49099;28.428;-16.488;2023-10-09T12:58:21;98456.75;;;32.77;20.75
63009;BME280;49099;28.428;-16.488;2023-10-09T13:01:14;98466.06;;;32.87;20.32
63009;BME280;49099;28.428;-16.488;2023-10-09T13:04:01;98461.69;;;32.89;20.25
63009;BME280;49099;28.428;-16.488;2023-10-09T13:06:49;98457.38;;;32.92;19.77
63009;BME280;49099;28.428;-16.488;2023-10-09T13:09:41;98450.28;;;32.91;19.32
63009;BME280;49099;28.428;-16.488;2023-10-09T13:12:45;98452.66;;;32.92;25.87
63009;BME280;49099;28.428;-16.488;2023-10-09T13:15:33;98444.03;;;32.90;21.69
63009;BME280;49099;28.428;-16.488;2023-10-09T13:18:29;98446.16;;;33.06;20.57
63009;BME280;49099;28.428;-16.488;2023-10-09T13:21:23;98448.25;;;33.22;23.11
63009;BME280;49099;28.428;-16.488;2023-10-09T13:24:11;98428.78;;;33.13;26.22
63009;BME280;49099;28.428;-16.488;2023-10-09T13:27:03;98434.38;;;33.06;25.24
63009;BME280;49099;28.428;-16.488;2023-10-09T13:29:51;98430.50;;;33.03;21.82
63009;BME280;49099;28.428;-16.488;2023-10-09T13:32:39;98419.13;;;33.28;20.69
63009;BME280;49099;28.428;-16.488;2023-10-09T13:35:27;98414.00;;;33.53;18.02
63009;BME280;49099;28.428;-16.488;2023-10-09T13:38:25;98416.16;;;33.66;25.78
63009;BME280;49099;28.428;-16.488;2023-10-09T13:41:13;98409.88;;;33.65;29.66
63009;BME280;49099;28.428;-16.488;2023-10-09T13:44:01;98402.88;;;33.61;26.08
63009;BME280;49099;28.428;-16.488;2023-10-09T13:46:50;98405.03;;;33.73;23.94
63009;BME280;49099;28.428;-16.488;2023-10-09T13:49:38;98399.25;;;33.87;20.55
63009;BME280;49099;28.428;-16.488;2023-10-09T13:52:29;98401.06;;;33.97;16.73
63009;BME280;49099;28.428;-16.488;2023-10-09T13:55:18;98410.66;;;34.09;15.78
63009;BME280;49099;28.428;-16.488;2023-10-09T13:58:05;98399.50;;;34.16;18.48
63009;BME280;49099;28.428;-16.488;2023-10-09T14:00:53;98409.81;;;34.12;25.03
63009;BME280;49099;28.428;-16.488;2023-10-09T14:03:41;98396.81;;;34.13;24.03
63009;BME280;49099;28.428;-16.488;2023-10-09T14:06:29;98400.19;;;34.20;22.76
63009;BME280;49099;28.428;-16.488;2023-10-09T14:09:20;98397.03;;;34.22;23.54
63009;BME280;49099;28.428;-16.488;2023-10-09T14:12:25;98398.63;;;34.39;19.63
63009;BME280;49099;28.428;-16.488;2023-10-09T14:15:16;98401.47;;;34.55;17.03
63009;BME280;49099;28.428;-16.488;2023-10-09T14:18:04;98395.84;;;34.79;17.01
63009;BME280;49099;28.428;-16.488;2023-10-09T14:20:56;98394.81;;;34.89;17.07
63009;BME280;49099;28.428;-16.488;2023-10-09T14:23:48;98381.72;;;34.93;16.17
63009;BME280;49099;28.428;-16.488;2023-10-09T14:26:35;98396.22;;;34.97;29.15
63009;BME280;49099;28.428;-16.488;2023-10-09T14:29:23;98394.31;;;34.94;27.94
63009;BME280;49099;28.428;-16.488;2023-10-09T14:32:14;98389.59;;;34.95;20.22
63009;BME280;49099;28.428;-16.488;2023-10-09T14:35:02;98389.41;;;35.02;20.10
63009;BME280;49099;28.428;-16.488;2023-10-09T14:38:00;98383.72;;;35.09;16.92
63009;BME280;49099;28.428;-16.488;2023-10-09T14:40:52;98385.03;;;35.21;15.31
63009;BME280;49099;28.428;-16.488;2023-10-09T14:43:45;98385.19;;;35.30;14.37
63009;BME280;49099;28.428;-16.488;2023-10-09T14:46:32;98388.28;;;35.32;13.92
63009;BME280;49099;28.428;-16.488;2023-10-09T14:49:20;98388.19;;;35.35;14.80
63009;BME280;49099;28.428;-16.488;2023-10-09T14:52:09;98385.78;;;35.37;14.42
63009;BME280;49099;28.428;-16.488;2023-10-09T14:54:57;98394.34;;;35.43;13.53
63009;BME280;49099;28.428;-16.488;2023-10-09T14:57:45;98398.97;;;35.46;13.75
63009;BME280;49099;28.428;-16.488;2023-10-09T15:00:33;98388.63;;;35.50;13.38
63009;BME280;49099;28.428;-16.488;2023-10-09T15:03:22;98386.63;;;35.67;13.76
63009;BME280;49099;28.428;-16.488;2023-10-09T15:06:10;98383.91;;;35.80;13.34
63009;BME280;49099;28.428;-16.488;2023-10-09T15:08:58;98393.16;;;36.02;13.60